sensor_id;sensor_type;location;lat;lon;timestamp;P1;durP1;ratioP1;P2;durP2;ratioP2
40945;SDS011;55635;50.264;11.918;2023-06-19T00:01:09;10.27;;;9.27;;
40945;SDS011;55635;50.264;11.918;2023-06-19T00:03:50;11.55;;;9.70;;
40945;SDS011;55635;50.264;11.918;2023-06-19T00:06:30;10.85;;;9.50;;
40945;SDS011;55635;50.264;11.918;2023-06-19T00:09:11;11.38;;;9.35;;
40945;SDS011;55635;50.264;11.918;2023-06-19T00:11:53;10.95;;;9.70;;
40945;SDS011;55635;50.264;11.918;2023-06-19T00:14:34;10.77;;;9.60;;
40945;SDS011;55635;50.264;11.918;2023-06-19T00:17:16;11.88;;;9.15;;
40945;SDS011;55635;50.264;11.918;2023-06-19T00:19:57;10.95;;;9.82;;
40945;SDS011;55635;50.264;11.918;2023-06-19T00:22:38;13.10;;;10.25;;
40945;SDS011;55635;50.264;11.918;2023-06-19T00:25:20;10.88;;;9.43;;
40945;SDS011;55635;50.264;11.918;2023-06-19T00:28:01;10.98;;;9.88;;
40945;SDS011;55635;50.264;11.918;2023-06-19T00:30:42;10.55;;;9.48;;
40945;SDS011;55635;50.264;11.918;2023-06-19T00:33:23;9.95;;;8.80;;
40945;SDS011;55635;50.264;11.918;2023-06-19T00:36:10;11.90;;;9.38;;
40945;SDS011;55635;50.264;11.918;2023-06-19T00:38:52;10.57;;;9.13;;
40945;SDS011;55635;50.264;11.918;2023-06-19T00:41:33;11.05;;;9.13;;
40945;SDS011;55635;50.264;11.918;2023-06-19T00:44:15;11.02;;;9.05;;
40945;SDS011;55635;50.264;11.918;2023-06-19T00:46:57;11.32;;;8.32;;
40945;SDS011;55635;50.264;11.918;2023-06-19T00:49:41;10.52;;;9.23;;
40945;SDS011;55635;50.264;11.918;2023-06-19T00:52:22;10.63;;;9.52;;
40945;SDS011;55635;50.264;11.918;2023-06-19T00:55:04;9.65;;;8.75;;
40945;SDS011;55635;50.264;11.918;2023-06-19T00:57:47;11.68;;;9.50;;
40945;SDS011;55635;50.264;11.918;2023-06-19T01:00:30;11.13;;;9.35;;
40945;SDS011;55635;50.264;11.918;2023-06-19T01:03:11;11.07;;;9.38;;
40945;SDS011;55635;50.264;11.918;2023-06-19T01:05:52;10.13;;;8.88;;
40945;SDS011;55635;50.264;11.918;2023-06-19T01:11:25;10.85;;;9.75;;
40945;SDS011;55635;50.264;11.918;2023-06-19T01:14:39;12.27;;;9.20;;
40945;SDS011;55635;50.264;11.918;2023-06-19T01:17:40;9.38;;;8.38;;
40945;SDS011;55635;50.264;11.918;2023-06-19T01:20:21;10.18;;;8.77;;
40945;SDS011;55635;50.264;11.918;2023-06-19T01:23:07;13.90;;;8.75;;
40945;SDS011;55635;50.264;11.918;2023-06-19T01:25:49;10.07;;;9.10;;
40945;SDS011;55635;50.264;11.918;2023-06-19T01:28:30;10.18;;;9.18;;
40945;SDS011;55635;50.264;11.918;2023-06-19T01:31:12;10.48;;;9.48;;
40945;SDS011;55635;50.264;11.918;2023-06-19T01:34:01;11.20;;;9.55;;
40945;SDS011;55635;50.264;11.918;2023-06-19T01:36:42;11.27;;;9.95;;
40945;SDS011;55635;50.264;11.918;2023-06-19T01:39:25;10.30;;;9.18;;
40945;SDS011;55635;50.264;11.918;2023-06-19T01:42:07;10.20;;;8.80;;
40945;SDS011;55635;50.264;11.918;2023-06-19T01:44:51;11.10;;;9.50;;
40945;SDS011;55635;50.264;11.918;2023-06-19T01:47:32;10.85;;;9.75;;
40945;SDS011;55635;50.264;11.918;2023-06-19T01:50:14;12.50;;;11.20;;
40945;SDS011;55635;50.264;11.918;2023-06-19T01:52:55;11.32;;;9.65;;
40945;SDS011;55635;50.264;11.918;2023-06-19T01:55:36;11.07;;;10.00;;
40945;SDS011;55635;50.264;11.918;2023-06-19T01:58:17;11.75;;;9.50;;
40945;SDS011;55635;50.264;11.918;2023-06-19T02:00:59;11.60;;;9.85;;
40945;SDS011;55635;50.264;11.918;2023-06-19T02:03:40;12.57;;;10.35;;
40945;SDS011;55635;50.264;11.918;2023-06-19T02:06:20;10.55;;;9.45;;
40945;SDS011;55635;50.264;11.918;2023-06-19T02:09:01;11.27;;;10.18;;
40945;SDS011;55635;50.264;11.918;2023-06-19T02:11:42;10.90;;;9.90;;
40945;SDS011;55635;50.264;11.918;2023-06-19T02:14:23;11.15;;;9.85;;
40945;SDS011;55635;50.264;11.918;2023-06-19T02:17:05;11.80;;;9.88;;
40945;SDS011;55635;50.264;11.918;2023-06-19T02:19:46;10.98;;;9.98;;
40945;SDS011;55635;50.264;11.918;2023-06-19T02:22:27;15.02;;;9.93;;
40945;SDS011;55635;50.264;11.918;2023-06-19T02:25:08;12.07;;;10.40;;
40945;SDS011;55635;50.264;11.918;2023-06-19T02:27:49;12.43;;;9.73;;
40945;SDS011;55635;50.264;11.918;2023-06-19T02:30:30;16.88;;;10.20;;
40945;SDS011;55635;50.264;11.918;2023-06-19T02:33:11;15.70;;;10.68;;
40945;SDS011;55635;50.264;11.918;2023-06-19T02:35:53;14.00;;;11.27;;
40945;SDS011;55635;50.264;11.918;2023-06-19T02:38:39;12.95;;;10.68;;
40945;SDS011;55635;50.264;11.918;2023-06-19T02:41:19;14.20;;;10.32;;
40945;SDS011;55635;50.264;11.918;2023-06-19T02:44:00;14.38;;;10.32;;
40945;SDS011;55635;50.264;11.918;2023-06-19T02:46:41;11.63;;;10.43;;
40945;SDS011;55635;50.264;11.918;2023-06-19T02:49:23;11.68;;;10.02;;
40945;SDS011;55635;50.264;11.918;2023-06-19T02:52:04;11.07;;;9.80;;
40945;SDS011;55635;50.264;11.918;2023-06-19T02:54:46;13.43;;;10.43;;
40945;SDS011;55635;50.264;11.918;2023-06-19T02:57:27;13.70;;;9.93;;
40945;SDS011;55635;50.264;11.918;2023-06-19T03:00:08;11.57;;;10.38;;
40945;SDS011;55635;50.264;11.918;2023-06-19T03:02:52;12.15;;;10.32;;
40945;SDS011;55635;50.264;11.918;2023-06-19T03:05:33;11.73;;;10.52;;
40945;SDS011;55635;50.264;11.918;2023-06-19T03:08:14;11.23;;;10.02;;
40945;SDS011;55635;50.264;11.918;2023-06-19T03:10:55;12.55;;;10.90;;
40945;SDS011;55635;50.264;11.918;2023-06-19T03:16:34;11.80;;;10.70;;
40945;SDS011;55635;50.264;11.918;2023-06-19T03:19:16;13.50;;;10.95;;
40945;SDS011;55635;50.264;11.918;2023-06-19T03:21:57;11.35;;;10.30;;
40945;SDS011;55635;50.264;11.918;2023-06-19T03:24:38;12.32;;;10.45;;
40945;SDS011;55635;50.264;11.918;2023-06-19T03:27:30;12.00;;;9.93;;
40945;SDS011;55635;50.264;11.918;2023-06-19T03:30:11;13.07;;;10.13;;
40945;SDS011;55635;50.264;11.918;2023-06-19T03:32:55;11.38;;;10.13;;
40945;SDS011;55635;50.264;11.918;2023-06-19T03:35:56;11.23;;;10.07;;
40945;SDS011;55635;50.264;11.918;2023-06-19T03:38:48;12.88;;;9.45;;
40945;SDS011;55635;50.264;11.918;2023-06-19T03:41:32;10.52;;;9.45;;
40945;SDS011;55635;50.264;11.918;2023-06-19T03:44:13;11.65;;;9.75;;
40945;SDS011;55635;50.264;11.918;2023-06-19T03:46:54;10.70;;;9.70;;
40945;SDS011;55635;50.264;11.918;2023-06-19T03:49:35;10.38;;;9.25;;
40945;SDS011;55635;50.264;11.918;2023-06-19T03:52:18;11.35;;;9.82;;
40945;SDS011;55635;50.264;11.918;2023-06-19T03:54:59;13.07;;;10.82;;
40945;SDS011;55635;50.264;11.918;2023-06-19T03:57:39;12.05;;;10.32;;
40945;SDS011;55635;50.264;11.918;2023-06-19T04:00:20;11.55;;;9.48;;
40945;SDS011;55635;50.264;11.918;2023-06-19T04:03:03;11.32;;;10.20;;
40945;SDS011;55635;50.264;11.918;2023-06-19T04:05:44;10.65;;;9.13;;
40945;SDS011;55635;50.264;11.918;2023-06-19T04:08:26;16.08;;;10.82;;
40945;SDS011;55635;50.264;11.918;2023-06-19T04:11:07;10.68;;;9.50;;
40945;SDS011;55635;50.264;11.918;2023-06-19T04:13:48;11.98;;;9.63;;
40945;SDS011;55635;50.264;11.918;2023-06-19T04:16:29;10.00;;;9.00;;
40945;SDS011;55635;50.264;11.918;2023-06-19T04:19:09;10.20;;;9.25;;
40945;SDS011;55635;50.264;11.918;2023-06-19T04:21:50;11.35;;;9.73;;
40945;SDS011;55635;50.264;11.918;2023-06-19T04:24:31;11.50;;;9.00;;
40945;SDS011;55635;50.264;11.918;2023-06-19T04:27:12;11.15;;;9.77;;
40945;SDS011;55635;50.264;11.918;2023-06-19T04:29:53;11.77;;;9.65;;
40945;SDS011;55635;50.264;11.918;2023-06-19T04:32:34;9.63;;;8.68;;
40945;SDS011;55635;50.264;11.918;2023-06-19T04:35:15;9.68;;;8.77;;
40945;SDS011;55635;50.264;11.918;2023-06-19T04:37:58;10.02;;;8.93;;
40945;SDS011;55635;50.264;11.918;2023-06-19T04:40:41;10.10;;;9.07;;
40945;SDS011;55635;50.264;11.918;2023-06-19T04:43:23;10.73;;;9.27;;
40945;SDS011;55635;50.264;11.918;2023-06-19T04:46:04;10.45;;;9.32;;
40945;SDS011;55635;50.264;11.918;2023-06-19T04:48:46;11.07;;;9.30;;
40945;SDS011;55635;50.264;11.918;2023-06-19T04:51:31;10.05;;;9.15;;
40945;SDS011;55635;50.264;11.918;2023-06-19T04:54:12;10.98;;;9.25;;
40945;SDS011;55635;50.264;11.918;2023-06-19T04:56:53;10.13;;;8.77;;
40945;SDS011;55635;50.264;11.918;2023-06-19T04:59:34;9.32;;;8.43;;
40945;SDS011;55635;50.264;11.918;2023-06-19T05:02:15;10.05;;;9.05;;
40945;SDS011;55635;50.264;11.918;2023-06-19T05:04:56;9.95;;;8.50;;
40945;SDS011;55635;50.264;11.918;2023-06-19T05:07:37;9.68;;;8.70;;
40945;SDS011;55635;50.264;11.918;2023-06-19T05:10:18;9.32;;;8.43;;
40945;SDS011;55635;50.264;11.918;2023-06-19T05:12:59;9.75;;;8.82;;
40945;SDS011;55635;50.264;11.918;2023-06-19T05:15:40;9.60;;;8.63;;
40945;SDS011;55635;50.264;11.918;2023-06-19T05:18:21;9.20;;;8.30;;
40945;SDS011;55635;50.264;11.918;2023-06-19T05:21:02;9.77;;;8.77;;
40945;SDS011;55635;50.264;11.918;2023-06-19T05:23:43;11.35;;;10.02;;
40945;SDS011;55635;50.264;11.918;2023-06-19T05:26:24;9.68;;;8.63;;
40945;SDS011;55635;50.264;11.918;2023-06-19T05:29:06;11.20;;;9.30;;
40945;SDS011;55635;50.264;11.918;2023-06-19T05:31:48;11.98;;;9.15;;
40945;SDS011;55635;50.264;11.918;2023-06-19T05:34:29;10.63;;;9.38;;
40945;SDS011;55635;50.264;11.918;2023-06-19T05:37:10;10.73;;;9.63;;
40945;SDS011;55635;50.264;11.918;2023-06-19T05:39:51;10.07;;;8.80;;
40945;SDS011;55635;50.264;11.918;2023-06-19T05:42:32;10.98;;;9.00;;
40945;SDS011;55635;50.264;11.918;2023-06-19T05:45:13;11.00;;;9.25;;
40945;SDS011;55635;50.264;11.918;2023-06-19T05:47:54;10.23;;;9.13;;
40945;SDS011;55635;50.264;11.918;2023-06-19T05:50:35;9.50;;;8.50;;
40945;SDS011;55635;50.264;11.918;2023-06-19T05:53:16;10.02;;;9.02;;
40945;SDS011;55635;50.264;11.918;2023-06-19T05:55:57;9.73;;;8.73;;
40945;SDS011;55635;50.264;11.918;2023-06-19T05:58:38;9.43;;;8.55;;
40945;SDS011;55635;50.264;11.918;2023-06-19T06:01:22;9.70;;;8.70;;
40945;SDS011;55635;50.264;11.918;2023-06-19T06:04:04;9.52;;;8.55;;
40945;SDS011;55635;50.264;11.918;2023-06-19T06:06:45;12.13;;;9.02;;
40945;SDS011;55635;50.264;11.918;2023-06-19T06:09:26;10.38;;;9.38;;
40945;SDS011;55635;50.264;11.918;2023-06-19T06:12:07;15.35;;;9.10;;
40945;SDS011;55635;50.264;11.918;2023-06-19T06:14:49;10.85;;;8.40;;
40945;SDS011;55635;50.264;11.918;2023-06-19T06:17:29;9.77;;;8.80;;
40945;SDS011;55635;50.264;11.918;2023-06-19T06:20:10;9.90;;;8.55;;
40945;SDS011;55635;50.264;11.918;2023-06-19T06:22:52;8.43;;;7.68;;
40945;SDS011;55635;50.264;11.918;2023-06-19T06:25:33;9.27;;;8.27;;
40945;SDS011;55635;50.264;11.918;2023-06-19T06:28:14;8.52;;;7.63;;
40945;SDS011;55635;50.264;11.918;2023-06-19T06:30:55;9.75;;;8.75;;
40945;SDS011;55635;50.264;11.918;2023-06-19T06:33:36;10.57;;;8.35;;
40945;SDS011;55635;50.264;11.918;2023-06-19T06:36:17;8.55;;;7.70;;
40945;SDS011;55635;50.264;11.918;2023-06-19T06:38:58;10.60;;;9.02;;
40945;SDS011;55635;50.264;11.918;2023-06-19T06:41:39;9.13;;;8.23;;
40945;SDS011;55635;50.264;11.918;2023-06-19T06:44:20;8.90;;;8.00;;
40945;SDS011;55635;50.264;11.918;2023-06-19T06:47:01;9.18;;;8.27;;
40945;SDS011;55635;50.264;11.918;2023-06-19T06:49:42;9.52;;;8.30;;
40945;SDS011;55635;50.264;11.918;2023-06-19T06:52:23;9.00;;;8.20;;
40945;SDS011;55635;50.264;11.918;2023-06-19T06:55:04;9.23;;;8.20;;
40945;SDS011;55635;50.264;11.918;2023-06-19T06:57:45;9.95;;;8.73;;
40945;SDS011;55635;50.264;11.918;2023-06-19T07:00:27;11.93;;;9.23;;
40945;SDS011;55635;50.264;11.918;2023-06-19T07:03:09;9.80;;;8.90;;
40945;SDS011;55635;50.264;11.918;2023-06-19T07:05:50;10.45;;;9.45;;
40945;SDS011;55635;50.264;11.918;2023-06-19T07:08:31;10.38;;;9.38;;
40945;SDS011;55635;50.264;11.918;2023-06-19T07:11:12;9.95;;;8.95;;
40945;SDS011;55635;50.264;11.918;2023-06-19T07:13:52;9.48;;;8.68;;
40945;SDS011;55635;50.264;11.918;2023-06-19T07:16:33;10.27;;;8.48;;
40945;SDS011;55635;50.264;11.918;2023-06-19T07:19:14;9.77;;;8.88;;
40945;SDS011;55635;50.264;11.918;2023-06-19T07:21:56;9.77;;;8.30;;
40945;SDS011;55635;50.264;11.918;2023-06-19T07:24:37;9.15;;;8.18;;
40945;SDS011;55635;50.264;11.918;2023-06-19T07:27:17;12.90;;;8.70;;
40945;SDS011;55635;50.264;11.918;2023-06-19T07:29:58;10.15;;;9.10;;
40945;SDS011;55635;50.264;11.918;2023-06-19T07:32:39;8.82;;;8.02;;
40945;SDS011;55635;50.264;11.918;2023-06-19T07:35:20;9.23;;;8.32;;
40945;SDS011;55635;50.264;11.918;2023-06-19T07:38:01;8.50;;;7.72;;
40945;SDS011;55635;50.264;11.918;2023-06-19T07:40:42;8.73;;;7.85;;
40945;SDS011;55635;50.264;11.918;2023-06-19T07:43:23;9.15;;;8.10;;
40945;SDS011;55635;50.264;11.918;2023-06-19T07:46:04;8.65;;;7.75;;
40945;SDS011;55635;50.264;11.918;2023-06-19T07:48:45;9.38;;;8.48;;
40945;SDS011;55635;50.264;11.918;2023-06-19T07:51:26;8.10;;;7.30;;
40945;SDS011;55635;50.264;11.918;2023-06-19T07:54:07;8.95;;;8.02;;
40945;SDS011;55635;50.264;11.918;2023-06-19T07:56:48;8.60;;;7.30;;
40945;SDS011;55635;50.264;11.918;2023-06-19T07:59:28;9.13;;;8.32;;
40945;SDS011;55635;50.264;11.918;2023-06-19T08:02:09;10.43;;;7.47;;
40945;SDS011;55635;50.264;11.918;2023-06-19T08:04:51;8.20;;;7.40;;
40945;SDS011;55635;50.264;11.918;2023-06-19T08:07:32;10.13;;;7.85;;
40945;SDS011;55635;50.264;11.918;2023-06-19T08:10:12;11.68;;;8.10;;
40945;SDS011;55635;50.264;11.918;2023-06-19T08:12:53;8.38;;;7.57;;
40945;SDS011;55635;50.264;11.918;2023-06-19T08:15:34;9.57;;;8.25;;
40945;SDS011;55635;50.264;11.918;2023-06-19T08:18:15;8.60;;;7.90;;
40945;SDS011;55635;50.264;11.918;2023-06-19T08:20:56;9.15;;;8.23;;
40945;SDS011;55635;50.264;11.918;2023-06-19T08:23:37;9.45;;;8.30;;
40945;SDS011;55635;50.264;11.918;2023-06-19T08:26:19;9.45;;;8.13;;
40945;SDS011;55635;50.264;11.918;2023-06-19T08:29:00;9.80;;;8.90;;
40945;SDS011;55635;50.264;11.918;2023-06-19T08:31:41;9.88;;;7.88;;
40945;SDS011;55635;50.264;11.918;2023-06-19T08:34:22;12.30;;;8.98;;
40945;SDS011;55635;50.264;11.918;2023-06-19T08:37:03;9.40;;;8.50;;
40945;SDS011;55635;50.264;11.918;2023-06-19T08:39:46;9.63;;;8.73;;
40945;SDS011;55635;50.264;11.918;2023-06-19T08:42:27;12.30;;;9.32;;
40945;SDS011;55635;50.264;11.918;2023-06-19T08:45:08;9.02;;;8.23;;
40945;SDS011;55635;50.264;11.918;2023-06-19T08:47:57;9.32;;;8.52;;
40945;SDS011;55635;50.264;11.918;2023-06-19T08:50:39;9.73;;;8.77;;
40945;SDS011;55635;50.264;11.918;2023-06-19T08:53:21;9.65;;;8.68;;
40945;SDS011;55635;50.264;11.918;2023-06-19T08:56:08;9.73;;;8.73;;
40945;SDS011;55635;50.264;11.918;2023-06-19T08:58:50;10.18;;;8.73;;
40945;SDS011;55635;50.264;11.918;2023-06-19T09:01:31;9.13;;;8.35;;
40945;SDS011;55635;50.264;11.918;2023-06-19T09:04:13;9.95;;;9.07;;
40945;SDS011;55635;50.264;11.918;2023-06-19T09:06:55;8.82;;;7.90;;
40945;SDS011;55635;50.264;11.918;2023-06-19T09:09:53;9.02;;;8.15;;
40945;SDS011;55635;50.264;11.918;2023-06-19T09:12:34;8.75;;;7.95;;
40945;SDS011;55635;50.264;11.918;2023-06-19T09:15:16;9.73;;;8.00;;
40945;SDS011;55635;50.264;11.918;2023-06-19T09:18:04;8.98;;;8.07;;
40945;SDS011;55635;50.264;11.918;2023-06-19T09:20:48;8.82;;;7.75;;
40945;SDS011;55635;50.264;11.918;2023-06-19T09:23:32;9.25;;;8.10;;
40945;SDS011;55635;50.264;11.918;2023-06-19T09:26:17;9.18;;;7.97;;
40945;SDS011;55635;50.264;11.918;2023-06-19T09:29:21;8.38;;;7.57;;
40945;SDS011;55635;50.264;11.918;2023-06-19T09:32:01;10.60;;;8.23;;
40945;SDS011;55635;50.264;11.918;2023-06-19T09:34:43;7.68;;;7.07;;
40945;SDS011;55635;50.264;11.918;2023-06-19T09:40:10;8.55;;;7.75;;
40945;SDS011;55635;50.264;11.918;2023-06-19T09:42:51;10.55;;;7.72;;
40945;SDS011;55635;50.264;11.918;2023-06-19T09:45:40;7.25;;;6.65;;
40945;SDS011;55635;50.264;11.918;2023-06-19T09:48:29;7.93;;;7.22;;
40945;SDS011;55635;50.264;11.918;2023-06-19T09:51:19;7.88;;;7.03;;
40945;SDS011;55635;50.264;11.918;2023-06-19T09:54:09;8.07;;;5.95;;
40945;SDS011;55635;50.264;11.918;2023-06-19T09:56:52;8.50;;;6.80;;
40945;SDS011;55635;50.264;11.918;2023-06-19T09:59:38;8.55;;;6.80;;
40945;SDS011;55635;50.264;11.918;2023-06-19T10:02:22;9.93;;;6.53;;
40945;SDS011;55635;50.264;11.918;2023-06-19T10:05:05;7.18;;;6.28;;
40945;SDS011;55635;50.264;11.918;2023-06-19T10:07:52;7.18;;;6.25;;
40945;SDS011;55635;50.264;11.918;2023-06-19T10:10:46;6.72;;;6.15;;
40945;SDS011;55635;50.264;11.918;2023-06-19T10:13:34;6.88;;;6.22;;
40945;SDS011;55635;50.264;11.918;2023-06-19T10:16:21;6.43;;;5.88;;
40945;SDS011;55635;50.264;11.918;2023-06-19T10:19:11;6.38;;;5.80;;
40945;SDS011;55635;50.264;11.918;2023-06-19T10:21:54;7.50;;;5.60;;
40945;SDS011;55635;50.264;11.918;2023-06-19T10:24:35;6.38;;;5.70;;
40945;SDS011;55635;50.264;11.918;2023-06-19T10:27:23;8.00;;;6.18;;
40945;SDS011;55635;50.264;11.918;2023-06-19T10:30:06;6.00;;;5.50;;
40945;SDS011;55635;50.264;11.918;2023-06-19T10:32:59;7.85;;;5.70;;
40945;SDS011;55635;50.264;11.918;2023-06-19T10:35:42;7.18;;;5.75;;
40945;SDS011;55635;50.264;11.918;2023-06-19T10:38:23;6.03;;;5.50;;
40945;SDS011;55635;50.264;11.918;2023-06-19T10:41:04;5.78;;;5.38;;
40945;SDS011;55635;50.264;11.918;2023-06-19T10:44:04;5.85;;;5.35;;
40945;SDS011;55635;50.264;11.918;2023-06-19T10:46:49;6.82;;;5.25;;
40945;SDS011;55635;50.264;11.918;2023-06-19T10:49:30;5.80;;;5.30;;
40945;SDS011;55635;50.264;11.918;2023-06-19T10:52:12;6.60;;;5.18;;
40945;SDS011;55635;50.264;11.918;2023-06-19T10:54:54;6.40;;;5.47;;
40945;SDS011;55635;50.264;11.918;2023-06-19T10:57:35;5.13;;;4.63;;
40945;SDS011;55635;50.264;11.918;2023-06-19T11:00:23;4.85;;;4.40;;
40945;SDS011;55635;50.264;11.918;2023-06-19T11:03:09;4.90;;;4.60;;
40945;SDS011;55635;50.264;11.918;2023-06-19T11:05:50;5.18;;;4.78;;
40945;SDS011;55635;50.264;11.918;2023-06-19T11:08:31;4.82;;;4.43;;
40945;SDS011;55635;50.264;11.918;2023-06-19T11:11:12;5.10;;;4.70;;
40945;SDS011;55635;50.264;11.918;2023-06-19T11:13:53;4.68;;;4.28;;
40945;SDS011;55635;50.264;11.918;2023-06-19T11:16:36;4.75;;;4.35;;
40945;SDS011;55635;50.264;11.918;2023-06-19T11:19:30;4.95;;;4.60;;
40945;SDS011;55635;50.264;11.918;2023-06-19T11:22:13;4.93;;;4.53;;
40945;SDS011;55635;50.264;11.918;2023-06-19T11:24:54;4.38;;;3.97;;
40945;SDS011;55635;50.264;11.918;2023-06-19T11:27:41;4.85;;;4.32;;
40945;SDS011;55635;50.264;11.918;2023-06-19T11:30:32;4.80;;;4.32;;
40945;SDS011;55635;50.264;11.918;2023-06-19T11:33:20;5.32;;;4.90;;
40945;SDS011;55635;50.264;11.918;2023-06-19T11:36:02;4.88;;;4.47;;
40945;SDS011;55635;50.264;11.918;2023-06-19T11:38:44;5.68;;;5.18;;
40945;SDS011;55635;50.264;11.918;2023-06-19T11:41:31;5.50;;;5.00;;
40945;SDS011;55635;50.264;11.918;2023-06-19T11:44:12;15.50;;;5.53;;
40945;SDS011;55635;50.264;11.918;2023-06-19T11:46:56;7.10;;;5.10;;
40945;SDS011;55635;50.264;11.918;2023-06-19T11:49:39;8.05;;;4.38;;
40945;SDS011;55635;50.264;11.918;2023-06-19T11:52:20;4.88;;;4.47;;
40945;SDS011;55635;50.264;11.918;2023-06-19T11:55:01;4.72;;;4.22;;
40945;SDS011;55635;50.264;11.918;2023-06-19T11:57:43;4.50;;;4.10;;
40945;SDS011;55635;50.264;11.918;2023-06-19T12:00:24;4.43;;;4.00;;
40945;SDS011;55635;50.264;11.918;2023-06-19T12:03:05;5.70;;;4.22;;
40945;SDS011;55635;50.264;11.918;2023-06-19T12:05:46;6.38;;;5.15;;
40945;SDS011;55635;50.264;11.918;2023-06-19T12:08:27;5.97;;;5.13;;
40945;SDS011;55635;50.264;11.918;2023-06-19T12:11:08;5.72;;;4.78;;
40945;SDS011;55635;50.264;11.918;2023-06-19T12:13:50;5.10;;;4.72;;
40945;SDS011;55635;50.264;11.918;2023-06-19T12:16:33;5.10;;;4.70;;
40945;SDS011;55635;50.264;11.918;2023-06-19T12:19:14;4.88;;;4.47;;
40945;SDS011;55635;50.264;11.918;2023-06-19T12:21:55;6.75;;;4.57;;
40945;SDS011;55635;50.264;11.918;2023-06-19T12:24:36;6.63;;;5.25;;
40945;SDS011;55635;50.264;11.918;2023-06-19T12:27:17;5.78;;;5.18;;
40945;SDS011;55635;50.264;11.918;2023-06-19T12:29:57;7.93;;;5.80;;
40945;SDS011;55635;50.264;11.918;2023-06-19T12:32:38;6.88;;;5.40;;
40945;SDS011;55635;50.264;11.918;2023-06-19T12:35:19;6.25;;;5.78;;
40945;SDS011;55635;50.264;11.918;2023-06-19T12:38:02;6.13;;;5.70;;
40945;SDS011;55635;50.264;11.918;2023-06-19T12:40:43;5.97;;;5.50;;
40945;SDS011;55635;50.264;11.918;2023-06-19T12:43:24;6.13;;;4.82;;
40945;SDS011;55635;50.264;11.918;2023-06-19T12:46:05;5.63;;;5.22;;
40945;SDS011;55635;50.264;11.918;2023-06-19T12:48:46;5.15;;;4.80;;
40945;SDS011;55635;50.264;11.918;2023-06-19T12:51:30;5.68;;;5.25;;
40945;SDS011;55635;50.264;11.918;2023-06-19T12:54:11;5.80;;;5.40;;
40945;SDS011;55635;50.264;11.918;2023-06-19T12:56:52;7.20;;;5.93;;
40945;SDS011;55635;50.264;11.918;2023-06-19T12:59:33;6.05;;;5.50;;
40945;SDS011;55635;50.264;11.918;2023-06-19T13:02:14;6.30;;;5.88;;
40945;SDS011;55635;50.264;11.918;2023-06-19T13:04:55;7.32;;;5.93;;
40945;SDS011;55635;50.264;11.918;2023-06-19T13:07:35;7.50;;;5.95;;
40945;SDS011;55635;50.264;11.918;2023-06-19T13:10:16;6.88;;;6.28;;
40945;SDS011;55635;50.264;11.918;2023-06-19T13:12:57;5.60;;;5.20;;
40945;SDS011;55635;50.264;11.918;2023-06-19T13:15:38;6.03;;;5.18;;
40945;SDS011;55635;50.264;11.918;2023-06-19T13:18:19;5.32;;;4.82;;
40945;SDS011;55635;50.264;11.918;2023-06-19T13:21:00;5.90;;;5.40;;
40945;SDS011;55635;50.264;11.918;2023-06-19T13:23:41;5.95;;;5.47;;
40945;SDS011;55635;50.264;11.918;2023-06-19T13:26:22;5.57;;;4.95;;
40945;SDS011;55635;50.264;11.918;2023-06-19T13:29:03;5.80;;;5.20;;
40945;SDS011;55635;50.264;11.918;2023-06-19T13:31:44;5.80;;;5.30;;
40945;SDS011;55635;50.264;11.918;2023-06-19T13:34:25;6.30;;;5.70;;
40945;SDS011;55635;50.264;11.918;2023-06-19T13:37:06;4.95;;;4.65;;
40945;SDS011;55635;50.264;11.918;2023-06-19T13:39:47;4.65;;;4.35;;
40945;SDS011;55635;50.264;11.918;2023-06-19T13:42:29;4.90;;;4.50;;
40945;SDS011;55635;50.264;11.918;2023-06-19T13:45:10;5.75;;;5.28;;
40945;SDS011;55635;50.264;11.918;2023-06-19T13:47:51;5.35;;;5.00;;
40945;SDS011;55635;50.264;11.918;2023-06-19T13:50:32;6.40;;;4.55;;
40945;SDS011;55635;50.264;11.918;2023-06-19T13:53:13;7.10;;;5.20;;
40945;SDS011;55635;50.264;11.918;2023-06-19T13:55:54;5.53;;;5.13;;
40945;SDS011;55635;50.264;11.918;2023-06-19T13:58:35;5.68;;;5.18;;
40945;SDS011;55635;50.264;11.918;2023-06-19T14:01:16;5.65;;;4.97;;
40945;SDS011;55635;50.264;11.918;2023-06-19T14:03:57;4.60;;;4.30;;
40945;SDS011;55635;50.264;11.918;2023-06-19T14:06:38;4.82;;;4.43;;
40945;SDS011;55635;50.264;11.918;2023-06-19T14:09:22;4.95;;;4.05;;
40945;SDS011;55635;50.264;11.918;2023-06-19T14:12:03;7.97;;;4.97;;
40945;SDS011;55635;50.264;11.918;2023-06-19T14:14:44;5.38;;;4.40;;
40945;SDS011;55635;50.264;11.918;2023-06-19T14:17:25;5.00;;;4.70;;
40945;SDS011;55635;50.264;11.918;2023-06-19T14:20:07;4.95;;;4.65;;
40945;SDS011;55635;50.264;11.918;2023-06-19T14:22:51;5.03;;;4.63;;
40945;SDS011;55635;50.264;11.918;2023-06-19T14:25:32;5.35;;;4.85;;
40945;SDS011;55635;50.264;11.918;2023-06-19T14:28:12;5.15;;;4.78;;
40945;SDS011;55635;50.264;11.918;2023-06-19T14:30:54;5.00;;;4.70;;
40945;SDS011;55635;50.264;11.918;2023-06-19T14:33:35;4.60;;;4.20;;
40945;SDS011;55635;50.264;11.918;2023-06-19T14:36:17;5.15;;;4.75;;
40945;SDS011;55635;50.264;11.918;2023-06-19T14:38:58;4.13;;;3.92;;
40945;SDS011;55635;50.264;11.918;2023-06-19T14:41:39;4.75;;;4.45;;
40945;SDS011;55635;50.264;11.918;2023-06-19T14:44:20;4.22;;;3.92;;
40945;SDS011;55635;50.264;11.918;2023-06-19T14:47:01;4.68;;;4.32;;
40945;SDS011;55635;50.264;11.918;2023-06-19T14:49:42;4.53;;;3.88;;
40945;SDS011;55635;50.264;11.918;2023-06-19T14:52:23;5.05;;;4.10;;
40945;SDS011;55635;50.264;11.918;2023-06-19T14:55:04;5.35;;;3.55;;
40945;SDS011;55635;50.264;11.918;2023-06-19T14:57:45;4.22;;;3.92;;
40945;SDS011;55635;50.264;11.918;2023-06-19T15:00:26;3.83;;;3.60;;
40945;SDS011;55635;50.264;11.918;2023-06-19T15:03:07;4.78;;;3.55;;
40945;SDS011;55635;50.264;11.918;2023-06-19T15:05:48;4.93;;;3.60;;
40945;SDS011;55635;50.264;11.918;2023-06-19T15:08:29;3.83;;;3.53;;
40945;SDS011;55635;50.264;11.918;2023-06-19T15:11:11;4.65;;;4.25;;
40945;SDS011;55635;50.264;11.918;2023-06-19T15:13:52;4.47;;;4.07;;
40945;SDS011;55635;50.264;11.918;2023-06-19T15:16:33;3.90;;;3.60;;
40945;SDS011;55635;50.264;11.918;2023-06-19T15:19:14;3.90;;;3.63;;
40945;SDS011;55635;50.264;11.918;2023-06-19T15:21:55;4.13;;;3.72;;
40945;SDS011;55635;50.264;11.918;2023-06-19T15:24:35;4.50;;;3.88;;
40945;SDS011;55635;50.264;11.918;2023-06-19T15:27:16;3.95;;;3.63;;
40945;SDS011;55635;50.264;11.918;2023-06-19T15:29:57;4.28;;;3.65;;
40945;SDS011;55635;50.264;11.918;2023-06-19T15:32:38;4.07;;;3.78;;
40945;SDS011;55635;50.264;11.918;2023-06-19T15:35:19;4.50;;;4.15;;
40945;SDS011;55635;50.264;11.918;2023-06-19T15:38:00;4.43;;;3.88;;
40945;SDS011;55635;50.264;11.918;2023-06-19T15:40:41;4.57;;;4.18;;
40945;SDS011;55635;50.264;11.918;2023-06-19T15:43:23;5.22;;;3.85;;
40945;SDS011;55635;50.264;11.918;2023-06-19T15:46:08;4.40;;;4.10;;
40945;SDS011;55635;50.264;11.918;2023-06-19T15:48:49;4.25;;;3.92;;
40945;SDS011;55635;50.264;11.918;2023-06-19T15:51:30;4.15;;;3.88;;
40945;SDS011;55635;50.264;11.918;2023-06-19T15:54:11;4.47;;;4.18;;
40945;SDS011;55635;50.264;11.918;2023-06-19T15:56:52;4.57;;;4.28;;
40945;SDS011;55635;50.264;11.918;2023-06-19T15:59:33;4.72;;;4.15;;
40945;SDS011;55635;50.264;11.918;2023-06-19T16:02:14;4.55;;;4.20;;
40945;SDS011;55635;50.264;11.918;2023-06-19T16:04:55;4.20;;;3.90;;